sensor_id;sensor_type;location;lat;lon;timestamp;noise_LAeq;noise_LA_min;noise_LA_max;noise_LA01;noise_LA95
17594;Laerm;8916;47.086;15.920;2022-07-04T00:00:34;48.75;47.55;51.13;;
17594;Laerm;8916;47.086;15.920;2022-07-04T00:03:03;48.71;47.46;51.00;;
17594;Laerm;8916;47.086;15.920;2022-07-04T00:05:33;48.71;47.67;51.14;;
17594;Laerm;8916;47.086;15.920;2022-07-04T00:08:03;48.74;47.54;51.03;;
17594;Laerm;8916;47.086;15.920;2022-07-04T00:10:34;48.73;47.50;51.49;;
17594;Laerm;8916;47.086;15.920;2022-07-04T00:13:03;48.72;47.54;50.85;;
17594;Laerm;8916;47.086;15.920;2022-07-04T00:15:33;48.72;47.54;50.92;;
17594;Laerm;8916;47.086;15.920;2022-07-04T00:18:03;48.73;47.61;51.11;;
17594;Laerm;8916;47.086;15.920;2022-07-04T00:20:32;48.72;47.52;50.80;;
17594;Laerm;8916;47.086;15.920;2022-07-04T00:23:01;48.73;47.50;50.73;;
17594;Laerm;8916;47.086;15.920;2022-07-04T00:25:31;48.73;47.50;50.92;;
17594;Laerm;8916;47.086;15.920;2022-07-04T00:28:04;48.73;47.52;50.85;;
17594;Laerm;8916;47.086;15.920;2022-07-04T00:30:34;48.75;47.70;50.85;;
17594;Laerm;8916;47.086;15.920;2022-07-04T00:33:03;48.76;47.57;51.09;;
17594;Laerm;8916;47.086;15.920;2022-07-04T00:35:33;48.75;47.68;50.95;;
17594;Laerm;8916;47.086;15.920;2022-07-04T00:38:02;48.76;47.36;51.33;;
17594;Laerm;8916;47.086;15.920;2022-07-04T00:40:31;48.73;47.46;50.80;;
17594;Laerm;8916;47.086;15.920;2022-07-04T00:43:01;48.73;47.67;50.78;;
17594;Laerm;8916;47.086;15.920;2022-07-04T00:45:32;48.74;47.65;51.25;;
17594;Laerm;8916;47.086;15.920;2022-07-04T00:48:02;48.74;47.50;50.87;;
17594;Laerm;8916;47.086;15.920;2022-07-04T00:50:31;48.73;47.57;50.77;;
17594;Laerm;8916;47.086;15.920;2022-07-04T00:53:00;48.74;47.55;51.10;;
17594;Laerm;8916;47.086;15.920;2022-07-04T00:55:30;48.75;47.30;50.96;;
17594;Laerm;8916;47.086;15.920;2022-07-04T00:58:00;48.74;47.70;50.80;;
17594;Laerm;8916;47.086;15.920;2022-07-04T01:00:29;48.72;47.30;50.85;;
17594;Laerm;8916;47.086;15.920;2022-07-04T01:03:00;48.73;47.50;50.95;;
17594;Laerm;8916;47.086;15.920;2022-07-04T01:05:29;48.74;47.63;51.17;;
17594;Laerm;8916;47.086;15.920;2022-07-04T01:07:59;48.73;47.57;51.06;;
17594;Laerm;8916;47.086;15.920;2022-07-04T01:10:29;48.74;47.44;51.13;;
17594;Laerm;8916;47.086;15.920;2022-07-04T01:12:58;48.73;47.67;51.19;;
17594;Laerm;8916;47.086;15.920;2022-07-04T01:15:30;48.73;47.50;50.76;;
17594;Laerm;8916;47.086;15.920;2022-07-04T01:18:00;48.73;47.48;51.34;;
17594;Laerm;8916;47.086;15.920;2022-07-04T01:20:37;48.75;47.57;51.03;;
17594;Laerm;8916;47.086;15.920;2022-07-04T01:23:07;48.73;47.70;50.74;;
17594;Laerm;8916;47.086;15.920;2022-07-04T01:25:36;48.73;47.67;50.86;;
17594;Laerm;8916;47.086;15.920;2022-07-04T01:28:05;48.73;47.59;51.14;;
17594;Laerm;8916;47.086;15.920;2022-07-04T01:30:37;48.73;47.63;51.07;;
17594;Laerm;8916;47.086;15.920;2022-07-04T01:33:06;48.74;47.63;51.07;;
17594;Laerm;8916;47.086;15.920;2022-07-04T01:35:37;48.73;47.67;50.77;;
17594;Laerm;8916;47.086;15.920;2022-07-04T01:38:06;48.72;47.46;50.85;;
17594;Laerm;8916;47.086;15.920;2022-07-04T01:40:36;48.74;47.59;51.28;;
17594;Laerm;8916;47.086;15.920;2022-07-04T01:43:05;48.74;47.63;51.06;;
17594;Laerm;8916;47.086;15.920;2022-07-04T01:45:35;48.74;47.28;51.17;;
17594;Laerm;8916;47.086;15.920;2022-07-04T01:48:06;48.75;47.50;50.85;;
17594;Laerm;8916;47.086;15.920;2022-07-04T01:50:37;48.75;47.32;51.16;;
17594;Laerm;8916;47.086;15.920;2022-07-04T01:53:06;48.74;47.46;50.81;;
17594;Laerm;8916;47.086;15.920;2022-07-04T01:55:36;48.73;47.34;50.48;;
17594;Laerm;8916;47.086;15.920;2022-07-04T01:58:05;48.72;47.55;50.79;;
17594;Laerm;8916;47.086;15.920;2022-07-04T02:00:34;48.73;47.50;50.80;;
17594;Laerm;8916;47.086;15.920;2022-07-04T02:03:21;48.72;47.44;50.66;;
17594;Laerm;8916;47.086;15.920;2022-07-04T02:05:52;48.72;47.61;51.22;;
17594;Laerm;8916;47.086;15.920;2022-07-04T02:08:21;48.72;47.63;50.79;;
17594;Laerm;8916;47.086;15.920;2022-07-04T02:10:50;48.72;47.52;50.85;;
17594;Laerm;8916;47.086;15.920;2022-07-04T02:13:20;48.74;47.63;50.71;;
17594;Laerm;8916;47.086;15.920;2022-07-04T02:15:48;48.73;47.54;50.71;;
17594;Laerm;8916;47.086;15.920;2022-07-04T02:18:17;48.74;47.67;51.03;;
17594;Laerm;8916;47.086;15.920;2022-07-04T02:20:46;48.73;47.59;50.65;;
17594;Laerm;8916;47.086;15.920;2022-07-04T02:23:17;48.72;47.52;50.86;;
17594;Laerm;8916;47.086;15.920;2022-07-04T02:25:46;48.73;47.44;50.77;;
17594;Laerm;8916;47.086;15.920;2022-07-04T02:28:15;48.73;47.59;50.85;;
17594;Laerm;8916;47.086;15.920;2022-07-04T02:30:46;48.73;47.40;50.64;;
17594;Laerm;8916;47.086;15.920;2022-07-04T02:33:15;48.74;47.46;50.68;;
17594;Laerm;8916;47.086;15.920;2022-07-04T02:35:44;48.75;47.61;50.83;;
17594;Laerm;8916;47.086;15.920;2022-07-04T02:38:13;48.76;47.63;51.09;;
17594;Laerm;8916;47.086;15.920;2022-07-04T02:40:45;48.74;47.57;50.56;;
17594;Laerm;8916;47.086;15.920;2022-07-04T02:43:15;48.75;47.57;50.86;;
17594;Laerm;8916;47.086;15.920;2022-07-04T02:45:45;48.76;47.61;50.61;;
17594;Laerm;8916;47.086;15.920;2022-07-04T02:48:14;48.76;47.59;50.92;;
17594;Laerm;8916;47.086;15.920;2022-07-04T02:50:43;48.76;47.65;50.60;;
17594;Laerm;8916;47.086;15.920;2022-07-04T02:53:12;48.76;47.68;50.60;;
17594;Laerm;8916;47.086;15.920;2022-07-04T02:55:42;48.77;47.57;50.67;;
17594;Laerm;8916;47.086;15.920;2022-07-04T02:58:13;48.76;47.54;50.93;;
17594;Laerm;8916;47.086;15.920;2022-07-04T03:00:42;48.76;47.67;50.77;;
17594;Laerm;8916;47.086;15.920;2022-07-04T03:03:11;48.75;47.50;50.81;;
17594;Laerm;8916;47.086;15.920;2022-07-04T03:05:40;48.75;47.46;51.15;;
17594;Laerm;8916;47.086;15.920;2022-07-04T03:08:10;48.76;47.65;50.32;;
17594;Laerm;8916;47.086;15.920;2022-07-04T03:10:39;48.76;47.52;50.56;;
17594;Laerm;8916;47.086;15.920;2022-07-04T03:13:08;48.77;47.70;50.70;;
17594;Laerm;8916;47.086;15.920;2022-07-04T03:15:39;48.76;47.68;50.44;;
17594;Laerm;8916;47.086;15.920;2022-07-04T03:18:08;48.75;47.52;50.65;;
17594;Laerm;8916;47.086;15.920;2022-07-04T03:20:37;48.75;47.52;50.71;;
17594;Laerm;8916;47.086;15.920;2022-07-04T03:23:07;48.75;47.63;50.78;;
17594;Laerm;8916;47.086;15.920;2022-07-04T03:25:36;48.76;47.68;50.62;;
17594;Laerm;8916;47.086;15.920;2022-07-04T03:28:06;48.74;47.68;51.55;;
17594;Laerm;8916;47.086;15.920;2022-07-04T03:30:35;48.76;47.50;50.81;;
17594;Laerm;8916;47.086;15.920;2022-07-04T03:33:06;48.74;47.57;50.71;;
17594;Laerm;8916;47.086;15.920;2022-07-04T03:35:35;48.74;47.46;50.55;;
17594;Laerm;8916;47.086;15.920;2022-07-04T03:38:05;48.74;47.59;50.37;;
17594;Laerm;8916;47.086;15.920;2022-07-04T03:40:34;48.73;47.38;50.55;;
17594;Laerm;8916;47.086;15.920;2022-07-04T03:43:04;48.74;47.57;50.62;;
17594;Laerm;8916;47.086;15.920;2022-07-04T03:45:34;48.74;47.52;50.55;;
17594;Laerm;8916;47.086;15.920;2022-07-04T03:48:05;48.74;47.52;50.78;;
17594;Laerm;8916;47.086;15.920;2022-07-04T03:50:35;48.75;47.59;50.45;;
17594;Laerm;8916;47.086;15.920;2022-07-04T03:53:04;48.74;47.57;50.49;;
17594;Laerm;8916;47.086;15.920;2022-07-04T03:55:33;48.74;47.67;50.74;;
17594;Laerm;8916;47.086;15.920;2022-07-04T03:58:03;48.74;47.61;50.59;;
17594;Laerm;8916;47.086;15.920;2022-07-04T04:00:33;48.75;47.57;51.40;;
17594;Laerm;8916;47.086;15.920;2022-07-04T04:03:03;48.74;47.57;50.68;;
17594;Laerm;8916;47.086;15.920;2022-07-04T04:05:54;48.73;47.59;50.80;;
17594;Laerm;8916;47.086;15.920;2022-07-04T04:08:22;48.76;47.61;50.93;;
17594;Laerm;8916;47.086;15.920;2022-07-04T04:10:53;48.75;47.68;50.81;;
17594;Laerm;8916;47.086;15.920;2022-07-04T04:13:22;48.75;47.55;50.77;;
17594;Laerm;8916;47.086;15.920;2022-07-04T04:15:51;48.75;47.40;51.57;;
17594;Laerm;8916;47.086;15.920;2022-07-04T04:18:20;48.74;47.63;51.40;;
17594;Laerm;8916;47.086;15.920;2022-07-04T04:20:50;48.74;47.55;50.96;;
17594;Laerm;8916;47.086;15.920;2022-07-04T04:23:20;48.73;47.65;51.02;;
17594;Laerm;8916;47.086;15.920;2022-07-04T04:25:50;48.72;47.54;51.67;;
17594;Laerm;8916;47.086;15.920;2022-07-04T04:28:24;48.73;47.59;50.85;;
17594;Laerm;8916;47.086;15.920;2022-07-04T04:30:53;48.72;47.68;50.73;;
17594;Laerm;8916;47.086;15.920;2022-07-04T04:33:22;48.71;47.53;50.84;;
17594;Laerm;8916;47.086;15.920;2022-07-04T04:35:51;48.71;47.55;51.08;;
17594;Laerm;8916;47.086;15.920;2022-07-04T04:38:22;48.72;47.65;51.03;;
17594;Laerm;8916;47.086;15.920;2022-07-04T04:40:51;48.71;47.51;50.92;;
17594;Laerm;8916;47.086;15.920;2022-07-04T04:43:21;48.70;47.57;51.60;;
17594;Laerm;8916;47.086;15.920;2022-07-04T04:45:50;48.70;47.54;51.04;;
17594;Laerm;8916;47.086;15.920;2022-07-04T04:48:20;48.68;47.40;50.96;;
17594;Laerm;8916;47.086;15.920;2022-07-04T04:50:50;48.68;47.30;50.81;;
17594;Laerm;8916;47.086;15.920;2022-07-04T04:53:19;48.70;47.50;51.02;;
17594;Laerm;8916;47.086;15.920;2022-07-04T04:55:51;48.69;47.50;50.90;;
17594;Laerm;8916;47.086;15.920;2022-07-04T04:58:21;48.69;47.55;51.09;;
17594;Laerm;8916;47.086;15.920;2022-07-04T05:00:51;48.69;47.57;51.26;;
17594;Laerm;8916;47.086;15.920;2022-07-04T05:03:40;48.69;47.59;51.50;;
17594;Laerm;8916;47.086;15.920;2022-07-04T05:06:10;48.67;47.55;51.48;;
17594;Laerm;8916;47.086;15.920;2022-07-04T05:08:39;48.70;47.52;51.56;;
17594;Laerm;8916;47.086;15.920;2022-07-04T05:11:10;48.68;47.48;51.32;;
17594;Laerm;8916;47.086;15.920;2022-07-04T05:13:39;48.68;47.48;51.13;;
17594;Laerm;8916;47.086;15.920;2022-07-04T05:16:09;48.71;47.46;51.68;;
17594;Laerm;8916;47.086;15.920;2022-07-04T05:18:38;48.66;47.52;51.45;;
17594;Laerm;8916;47.086;15.920;2022-07-04T05:21:07;48.67;47.48;53.12;;
17594;Laerm;8916;47.086;15.920;2022-07-04T05:23:36;48.69;47.63;51.78;;
17594;Laerm;8916;47.086;15.920;2022-07-04T05:26:06;48.66;47.40;51.89;;
17594;Laerm;8916;47.086;15.920;2022-07-04T05:28:37;48.67;47.30;51.85;;
17594;Laerm;8916;47.086;15.920;2022-07-04T05:31:06;48.67;47.48;51.69;;
17594;Laerm;8916;47.086;15.920;2022-07-04T05:33:36;48.67;47.38;52.15;;
17594;Laerm;8916;47.086;15.920;2022-07-04T05:36:06;48.68;47.42;51.72;;
17594;Laerm;8916;47.086;15.920;2022-07-04T05:38:35;48.69;47.46;52.79;;
17594;Laerm;8916;47.086;15.920;2022-07-04T05:41:05;48.68;47.38;52.02;;
17594;Laerm;8916;47.086;15.920;2022-07-04T05:43:48;48.69;47.46;52.17;;
17594;Laerm;8916;47.086;15.920;2022-07-04T05:46:28;48.69;47.34;52.13;;
17594;Laerm;8916;47.086;15.920;2022-07-04T05:48:58;48.69;47.44;52.06;;
17594;Laerm;8916;47.086;15.920;2022-07-04T05:51:28;48.66;47.28;52.45;;
17594;Laerm;8916;47.086;15.920;2022-07-04T05:53:57;48.68;47.26;52.44;;
17594;Laerm;8916;47.086;15.920;2022-07-04T05:56:27;48.67;47.48;52.60;;
17594;Laerm;8916;47.086;15.920;2022-07-04T05:58:58;48.65;47.24;52.77;;
17594;Laerm;8916;47.086;15.920;2022-07-04T06:01:28;48.68;47.18;52.29;;
17594;Laerm;8916;47.086;15.920;2022-07-04T06:03:58;48.65;47.48;52.07;;
17594;Laerm;8916;47.086;15.920;2022-07-04T06:06:27;48.68;47.32;52.34;;
17594;Laerm;8916;47.086;15.920;2022-07-04T06:08:58;48.67;47.28;52.56;;
17594;Laerm;8916;47.086;15.920;2022-07-04T06:11:27;48.74;47.32;52.48;;
17594;Laerm;8916;47.086;15.920;2022-07-04T06:13:58;48.75;47.40;52.17;;
17594;Laerm;8916;47.086;15.920;2022-07-04T06:16:28;48.81;47.32;52.01;;
17594;Laerm;8916;47.086;15.920;2022-07-04T06:18:59;48.82;47.26;53.06;;
17594;Laerm;8916;47.086;15.920;2022-07-04T06:21:29;48.90;47.44;52.78;;
17594;Laerm;8916;47.086;15.920;2022-07-04T06:23:59;48.89;47.30;52.68;;
17594;Laerm;8916;47.086;15.920;2022-07-04T06:26:29;48.84;47.20;51.55;;
17594;Laerm;8916;47.086;15.920;2022-07-04T06:29:00;48.87;47.46;51.52;;
17594;Laerm;8916;47.086;15.920;2022-07-04T06:31:30;48.92;47.30;51.70;;
17594;Laerm;8916;47.086;15.920;2022-07-04T06:33:59;48.93;47.26;52.36;;
17594;Laerm;8916;47.086;15.920;2022-07-04T06:36:46;48.97;47.42;52.02;;
17594;Laerm;8916;47.086;15.920;2022-07-04T06:39:15;48.95;47.40;51.97;;
17594;Laerm;8916;47.086;15.920;2022-07-04T06:41:45;48.98;47.40;51.57;;
17594;Laerm;8916;47.086;15.920;2022-07-04T06:44:15;49.04;47.42;52.05;;
17594;Laerm;8916;47.086;15.920;2022-07-04T06:46:45;49.05;47.34;52.17;;
17594;Laerm;8916;47.086;15.920;2022-07-04T06:49:14;49.01;47.46;52.78;;
17594;Laerm;8916;47.086;15.920;2022-07-04T06:51:43;48.95;47.22;52.23;;
17594;Laerm;8916;47.086;15.920;2022-07-04T06:54:14;48.97;47.30;52.78;;
17594;Laerm;8916;47.086;15.920;2022-07-04T06:56:43;49.06;47.36;52.76;;
17594;Laerm;8916;47.086;15.920;2022-07-04T06:59:14;49.20;47.08;52.56;;
17594;Laerm;8916;47.086;15.920;2022-07-04T07:01:44;49.32;47.34;53.08;;
17594;Laerm;8916;47.086;15.920;2022-07-04T07:04:17;49.54;47.24;53.14;;
17594;Laerm;8916;47.086;15.920;2022-07-04T07:06:48;49.47;47.22;53.21;;
17594;Laerm;8916;47.086;15.920;2022-07-04T07:09:18;49.37;47.32;52.98;;
17594;Laerm;8916;47.086;15.920;2022-07-04T07:11:47;49.76;47.26;54.29;;
17594;Laerm;8916;47.086;15.920;2022-07-04T07:14:18;50.08;47.26;53.86;;
17594;Laerm;8916;47.086;15.920;2022-07-04T07:16:49;49.88;47.10;53.58;;
17594;Laerm;8916;47.086;15.920;2022-07-04T07:19:19;49.73;47.22;53.37;;
17594;Laerm;8916;47.086;15.920;2022-07-04T07:21:49;49.67;47.34;53.62;;
17594;Laerm;8916;47.086;15.920;2022-07-04T07:24:21;49.80;47.22;53.97;;
17594;Laerm;8916;47.086;15.920;2022-07-04T07:26:52;49.77;47.10;53.49;;
17594;Laerm;8916;47.086;15.920;2022-07-04T07:29:23;49.83;47.36;53.01;;
17594;Laerm;8916;47.086;15.920;2022-07-04T07:32:21;49.75;47.26;53.50;;
17594;Laerm;8916;47.086;15.920;2022-07-04T07:34:56;49.83;47.20;52.90;;
17594;Laerm;8916;47.086;15.920;2022-07-04T07:37:26;49.75;47.14;53.18;;
17594;Laerm;8916;47.086;15.920;2022-07-04T07:39:55;49.76;47.22;52.82;;
17594;Laerm;8916;47.086;15.920;2022-07-04T07:42:25;49.76;47.36;53.76;;
17594;Laerm;8916;47.086;15.920;2022-07-04T07:44:56;49.82;47.08;53.37;;
17594;Laerm;8916;47.086;15.920;2022-07-04T07:47:25;49.77;47.24;53.90;;
17594;Laerm;8916;47.086;15.920;2022-07-04T07:50:03;49.95;47.14;53.02;;
17594;Laerm;8916;47.086;15.920;2022-07-04T07:52:33;50.08;47.26;55.26;;
17594;Laerm;8916;47.086;15.920;2022-07-04T07:55:07;50.63;47.32;55.52;;
17594;Laerm;8916;47.086;15.920;2022-07-04T07:57:37;50.65;47.26;54.72;;
17594;Laerm;8916;47.086;15.920;2022-07-04T08:00:11;50.59;47.34;54.13;;
17594;Laerm;8916;47.086;15.920;2022-07-04T08:02:46;50.68;47.30;54.71;;
17594;Laerm;8916;47.086;15.920;2022-07-04T08:05:33;50.33;47.20;54.20;;
17594;Laerm;8916;47.086;15.920;2022-07-04T08:08:04;50.67;47.14;54.50;;
17594;Laerm;8916;47.086;15.920;2022-07-04T08:10:35;50.68;47.32;53.92;;
17594;Laerm;8916;47.086;15.920;2022-07-04T08:13:04;50.51;47.34;53.89;;
17594;Laerm;8916;47.086;15.920;2022-07-04T08:15:35;50.60;47.36;54.43;;
17594;Laerm;8916;47.086;15.920;2022-07-04T08:18:05;50.98;47.42;55.04;;
17594;Laerm;8916;47.086;15.920;2022-07-04T08:20:34;50.62;47.16;54.39;;
17594;Laerm;8916;47.086;15.920;2022-07-04T08:23:24;50.64;47.34;54.61;;
17594;Laerm;8916;47.086;15.920;2022-07-04T08:25:53;50.92;47.26;55.01;;
17594;Laerm;8916;47.086;15.920;2022-07-04T08:28:22;51.16;47.34;55.03;;
17594;Laerm;8916;47.086;15.920;2022-07-04T08:31:02;51.76;47.10;56.12;;
17594;Laerm;8916;47.086;15.920;2022-07-04T08:33:32;52.11;47.59;56.56;;
17594;Laerm;8916;47.086;15.920;2022-07-04T08:36:03;52.73;47.20;57.66;;
17594;Laerm;8916;47.086;15.920;2022-07-04T08:38:32;52.85;47.57;57.50;;
17594;Laerm;8916;47.086;15.920;2022-07-04T08:41:03;53.25;47.12;58.66;;
17594;Laerm;8916;47.086;15.920;2022-07-04T08:43:33;53.59;47.14;58.24;;
17594;Laerm;8916;47.086;15.920;2022-07-04T08:46:07;53.09;46.93;58.41;;
17594;Laerm;8916;47.086;15.920;2022-07-04T08:48:52;52.31;47.12;57.32;;
17594;Laerm;8916;47.086;15.920;2022-07-04T08:51:44;52.37;47.36;57.86;;
17594;Laerm;8916;47.086;15.920;2022-07-04T08:54:16;52.27;47.20;57.42;;
17594;Laerm;8916;47.086;15.920;2022-07-04T08:57:06;52.25;47.14;57.49;;
17594;Laerm;8916;47.086;15.920;2022-07-04T08:59:53;52.04;47.34;56.81;;
17594;Laerm;8916;47.086;15.920;2022-07-04T09:02:28;51.69;47.08;56.79;;
17594;Laerm;8916;47.086;15.920;2022-07-04T09:04:58;51.75;47.08;57.20;;
17594;Laerm;8916;47.086;15.920;2022-07-04T09:07:28;51.44;47.24;55.89;;
17594;Laerm;8916;47.086;15.920;2022-07-04T09:09:58;51.14;47.04;55.94;;
17594;Laerm;8916;47.086;15.920;2022-07-04T09:12:27;50.90;47.02;55.52;;
17594;Laerm;8916;47.086;15.920;2022-07-04T09:15:15;50.76;47.08;55.35;;
17594;Laerm;8916;47.086;15.920;2022-07-04T09:17:47;50.73;47.14;55.32;;
17594;Laerm;8916;47.086;15.920;2022-07-04T09:20:18;51.27;47.32;55.74;;
17594;Laerm;8916;47.086;15.920;2022-07-04T09:22:51;51.41;47.18;55.65;;
17594;Laerm;8916;47.086;15.920;2022-07-04T09:25:21;51.39;47.20;55.86;;
17594;Laerm;8916;47.086;15.920;2022-07-04T09:27:55;51.17;47.30;55.58;;
17594;Laerm;8916;47.086;15.920;2022-07-04T09:30:27;51.23;47.44;55.82;;
17594;Laerm;8916;47.086;15.920;2022-07-04T09:32:58;51.26;47.24;55.32;;
17594;Laerm;8916;47.086;15.920;2022-07-04T09:35:30;51.14;47.18;56.46;;
17594;Laerm;8916;47.086;15.920;2022-07-04T09:38:04;51.51;47.21;55.87;;
17594;Laerm;8916;47.086;15.920;2022-07-04T09:40:36;51.66;47.42;55.50;;
17594;Laerm;8916;47.086;15.920;2022-07-04T09:43:27;51.73;47.30;57.10;;
17594;Laerm;8916;47.086;15.920;2022-07-04T09:45:58;51.81;47.16;55.56;;
17594;Laerm;8916;47.086;15.920;2022-07-04T09:48:48;51.62;47.38;57.16;;
17594;Laerm;8916;47.086;15.920;2022-07-04T09:51:36;51.90;47.10;56.46;;
17594;Laerm;8916;47.086;15.920;2022-07-04T09:54:25;51.74;47.38;57.07;;
17594;Laerm;8916;47.086;15.920;2022-07-04T09:56:57;52.10;46.97;56.25;;
17594;Laerm;8916;47.086;15.920;2022-07-04T09:59:28;52.00;47.22;56.61;;
17594;Laerm;8916;47.086;15.920;2022-07-04T10:02:09;52.04;47.34;56.05;;
17594;Laerm;8916;47.086;15.920;2022-07-04T10:04:46;51.94;47.34;57.54;;
17594;Laerm;8916;47.086;15.920;2022-07-04T10:07:33;52.03;46.93;56.78;;
17594;Laerm;8916;47.086;15.920;2022-07-04T10:10:38;52.41;47.68;56.47;;
17594;Laerm;8916;47.086;15.920;2022-07-04T10:13:10;53.24;47.15;57.47;;
17594;Laerm;8916;47.086;15.920;2022-07-04T10:15:42;53.34;47.34;57.83;;
17594;Laerm;8916;47.086;15.920;2022-07-04T10:18:11;53.09;47.32;57.81;;
17594;Laerm;8916;47.086;15.920;2022-07-04T10:20:42;52.93;47.22;57.64;;
17594;Laerm;8916;47.086;15.920;2022-07-04T10:23:13;52.33;47.30;58.16;;
17594;Laerm;8916;47.086;15.920;2022-07-04T10:25:46;52.60;47.16;58.87;;
17594;Laerm;8916;47.086;15.920;2022-07-04T10:28:16;53.07;47.34;57.15;;
17594;Laerm;8916;47.086;15.920;2022-07-04T10:30:48;52.51;47.16;57.09;;
17594;Laerm;8916;47.086;15.920;2022-07-04T10:33:24;52.22;47.32;56.74;;
17594;Laerm;8916;47.086;15.920;2022-07-04T10:35:56;51.95;47.32;56.18;;
17594;Laerm;8916;47.086;15.920;2022-07-04T10:38:30;51.62;47.18;55.91;;
17594;Laerm;8916;47.086;15.920;2022-07-04T10:41:03;51.25;47.42;55.50;;
17594;Laerm;8916;47.086;15.920;2022-07-04T10:44:01;50.72;47.26;62.34;;
17594;Laerm;8916;47.086;15.920;2022-07-04T10:46:48;50.80;47.26;56.29;;
17594;Laerm;8916;47.086;15.920;2022-07-04T10:49:24;51.69;47.46;55.95;;
17594;Laerm;8916;47.086;15.920;2022-07-04T10:52:01;51.38;47.08;55.45;;
17594;Laerm;8916;47.086;15.920;2022-07-04T10:54:38;51.58;47.42;55.53;;
17594;Laerm;8916;47.086;15.920;2022-07-04T10:57:14;51.46;47.32;55.59;;
17594;Laerm;8916;47.086;15.920;2022-07-04T11:02:32;51.27;47.14;55.65;;
17594;Laerm;8916;47.086;15.920;2022-07-04T11:05:04;51.17;47.10;56.12;;
17594;Laerm;8916;47.086;15.920;2022-07-04T11:07:58;51.11;47.28;55.76;;
17594;Laerm;8916;47.086;15.920;2022-07-04T11:10:31;51.50;47.40;55.95;;
17594;Laerm;8916;47.086;15.920;2022-07-04T11:13:15;51.64;47.42;56.42;;
17594;Laerm;8916;47.086;15.920;2022-07-04T11:16:00;51.40;47.14;55.70;;
17594;Laerm;8916;47.086;15.920;2022-07-04T11:18:38;51.72;47.24;55.87;;
17594;Laerm;8916;47.086;15.920;2022-07-04T11:21:22;51.68;47.32;55.78;;
17594;Laerm;8916;47.086;15.920;2022-07-04T11:23:55;51.51;47.32;55.70;;
17594;Laerm;8916;47.086;15.920;2022-07-04T11:26:25;51.34;47.36;55.94;;
17594;Laerm;8916;47.086;15.920;2022-07-04T11:28:54;51.27;47.00;55.27;;
17594;Laerm;8916;47.086;15.920;2022-07-04T11:31:38;50.92;47.28;54.88;;
17594;Laerm;8916;47.086;15.920;2022-07-04T11:34:08;50.91;47.36;54.34;;
17594;Laerm;8916;47.086;15.920;2022-07-04T11:36:39;50.74;47.26;54.71;;
17594;Laerm;8916;47.086;15.920;2022-07-04T11:39:11;50.81;47.26;54.43;;
17594;Laerm;8916;47.086;15.920;2022-07-04T11:41:43;50.95;47.34;54.84;;
17594;Laerm;8916;47.086;15.920;2022-07-04T11:44:32;51.05;47.22;54.92;;
17594;Laerm;8916;47.086;15.920;2022-07-04T11:47:20;51.05;47.42;54.88;;
17594;Laerm;8916;47.086;15.920;2022-07-04T11:49:53;51.09;47.22;54.64;;
17594;Laerm;8916;47.086;15.920;2022-07-04T11:52:25;50.97;47.28;55.00;;
17594;Laerm;8916;47.086;15.920;2022-07-04T11:55:17;51.04;47.38;55.59;;
17594;Laerm;8916;47.086;15.920;2022-07-04T11:57:48;51.19;47.12;55.64;;
17594;Laerm;8916;47.086;15.920;2022-07-04T12:00:24;51.04;47.14;54.89;;
17594;Laerm;8916;47.086;15.920;2022-07-04T12:02:59;50.82;47.24;54.95;;
17594;Laerm;8916;47.086;15.920;2022-07-04T12:05:29;50.99;47.17;55.49;;
17594;Laerm;8916;47.086;15.920;2022-07-04T12:07:59;50.81;47.22;55.50;;
17594;Laerm;8916;47.086;15.920;2022-07-04T12:10:52;51.07;46.97;55.87;;
17594;Laerm;8916;47.086;15.920;2022-07-04T12:13:21;51.31;47.04;55.62;;
17594;Laerm;8916;47.086;15.920;2022-07-04T12:15:52;51.60;47.08;56.47;;
17594;Laerm;8916;47.086;15.920;2022-07-04T12:18:23;51.54;47.12;56.12;;
17594;Laerm;8916;47.086;15.920;2022-07-04T12:20:54;52.25;47.06;57.23;;
17594;Laerm;8916;47.086;15.920;2022-07-04T12:23:25;52.31;46.82;56.80;;
17594;Laerm;8916;47.086;15.920;2022-07-04T12:25:57;51.98;47.18;56.88;;
17594;Laerm;8916;47.086;15.920;2022-07-04T12:28:35;51.86;47.06;56.26;;
17594;Laerm;8916;47.086;15.920;2022-07-04T12:31:04;52.53;46.93;56.97;;
17594;Laerm;8916;47.086;15.920;2022-07-04T12:33:36;53.09;46.95;58.97;;
17594;Laerm;8916;47.086;15.920;2022-07-04T12:36:06;53.77;47.08;59.66;;
17594;Laerm;8916;47.086;15.920;2022-07-04T12:38:38;54.52;47.12;59.13;;
17594;Laerm;8916;47.086;15.920;2022-07-04T12:41:12;55.00;46.89;60.42;;
17594;Laerm;8916;47.086;15.920;2022-07-04T12:43:47;54.89;46.95;61.24;;
17594;Laerm;8916;47.086;15.920;2022-07-04T12:46:28;55.24;46.69;60.77;;
17594;Laerm;8916;47.086;15.920;2022-07-04T12:48:59;55.58;47.40;60.63;;
17594;Laerm;8916;47.086;15.920;2022-07-04T12:51:31;56.12;47.40;61.45;;
17594;Laerm;8916;47.086;15.920;2022-07-04T12:54:08;56.22;47.59;62.13;;
17594;Laerm;8916;47.086;15.920;2022-07-04T12:56:40;56.20;47.55;60.64;;
17594;Laerm;8916;47.086;15.920;2022-07-04T12:59:14;56.16;47.74;60.86;;
17594;Laerm;8916;47.086;15.920;2022-07-04T13:01:46;56.62;47.72;67.87;;
17594;Laerm;8916;47.086;15.920;2022-07-04T13:04:16;56.64;47.38;61.57;;
17594;Laerm;8916;47.086;15.920;2022-07-04T13:06:45;56.98;47.30;61.48;;
17594;Laerm;8916;47.086;15.920;2022-07-04T13:09:15;59.42;47.76;67.23;;
17594;Laerm;8916;47.086;15.920;2022-07-04T13:11:46;57.36;47.84;62.22;;
17594;Laerm;8916;47.086;15.920;2022-07-04T13:14:47;57.97;47.61;64.96;;
17594;Laerm;8916;47.086;15.920;2022-07-04T13:17:17;57.90;48.08;64.85;;
17594;Laerm;8916;47.086;15.920;2022-07-04T13:19:46;58.32;47.86;65.60;;
17594;Laerm;8916;47.086;15.920;2022-07-04T13:22:15;58.21;48.26;65.39;;
17594;Laerm;8916;47.086;15.920;2022-07-04T13:24:45;57.96;47.96;65.80;;
17594;Laerm;8916;47.086;15.920;2022-07-04T13:27:16;58.19;47.79;65.28;;
17594;Laerm;8916;47.086;15.920;2022-07-04T13:29:45;58.31;48.71;64.44;;
17594;Laerm;8916;47.086;15.920;2022-07-04T13:32:15;57.35;48.32;63.41;;
17594;Laerm;8916;47.086;15.920;2022-07-04T13:34:44;57.53;47.88;65.60;;
17594;Laerm;8916;47.086;15.920;2022-07-04T13:37:13;57.44;48.23;66.28;;
17594;Laerm;8916;47.086;15.920;2022-07-04T13:39:45;58.14;47.83;66.63;;
17594;Laerm;8916;47.086;15.920;2022-07-04T13:42:19;57.07;48.08;66.08;;
17594;Laerm;8916;47.086;15.920;2022-07-04T13:45:03;56.55;47.12;63.71;;
17594;Laerm;8916;47.086;15.920;2022-07-04T13:47:33;56.78;48.05;62.36;;
17594;Laerm;8916;47.086;15.920;2022-07-04T13:50:03;57.42;48.05;62.57;;
17594;Laerm;8916;47.086;15.920;2022-07-04T13:52:32;57.45;48.79;64.67;;
17594;Laerm;8916;47.086;15.920;2022-07-04T13:55:01;57.12;47.84;62.87;;
17594;Laerm;8916;47.086;15.920;2022-07-04T13:57:33;56.55;48.23;61.52;;
17594;Laerm;8916;47.086;15.920;2022-07-04T14:00:04;56.19;48.83;61.65;;
17594;Laerm;8916;47.086;15.920;2022-07-04T14:02:36;56.50;48.07;60.52;;
17594;Laerm;8916;47.086;15.920;2022-07-04T14:05:06;56.75;48.77;61.57;;
17594;Laerm;8916;47.086;15.920;2022-07-04T14:07:36;56.69;48.42;69.80;;
17594;Laerm;8916;47.086;15.920;2022-07-04T14:10:06;55.29;47.96;59.49;;
17594;Laerm;8916;47.086;15.920;2022-07-04T14:12:37;56.15;48.78;61.08;;
17594;Laerm;8916;47.086;15.920;2022-07-04T14:15:09;57.13;48.15;62.84;;